createdAt,value
2022-08-25T00:00:12.921Z,100127.00
2022-08-25T00:06:15.870Z,100134.00
2022-08-25T00:12:26.106Z,100132.00
2022-08-25T00:18:28.420Z,100132.00
2022-08-25T00:24:31.065Z,100134.00
2022-08-25T00:30:33.228Z,100130.00
2022-08-25T00:36:35.745Z,100134.00
2022-08-25T00:42:38.674Z,100125.00
2022-08-25T00:48:42.804Z,100138.00
2022-08-25T00:54:50.535Z,100134.00
2022-08-25T01:00:56.095Z,100132.00
2022-08-25T01:06:59.409Z,100132.00
2022-08-25T01:13:28.064Z,100134.00
2022-08-25T01:19:32.412Z,100137.00
2022-08-25T01:25:57.602Z,100135.00
2022-08-25T01:32:03.360Z,100132.00
2022-08-25T01:38:06.623Z,100125.00
2022-08-25T01:44:09.217Z,100128.00
2022-08-25T01:50:16.736Z,100133.00
2022-08-25T01:56:19.698Z,100121.00
2022-08-25T02:02:22.156Z,100121.00
2022-08-25T02:08:25.387Z,100115.00
2022-08-25T02:14:28.906Z,100114.00
2022-08-25T02:20:31.278Z,100107.00
2022-08-25T02:26:35.287Z,100111.00
2022-08-25T02:32:37.493Z,100114.00
2022-08-25T02:38:40.253Z,100122.00
2022-08-25T02:44:42.703Z,100123.00
2022-08-25T02:50:48.989Z,100123.00
2022-08-25T02:56:51.159Z,100116.00
2022-08-25T03:02:53.469Z,100100.00
2022-08-25T03:08:56.006Z,100104.00
2022-08-25T03:14:58.139Z,100094.00
2022-08-25T03:21:00.871Z,100091.00
2022-08-25T03:27:03.172Z,100091.00
2022-08-25T03:33:05.348Z,100094.00
2022-08-25T03:39:09.134Z,100097.00
2022-08-25T03:45:13.077Z,100095.00
2022-08-25T03:51:30.798Z,100096.00
2022-08-25T03:57:33.223Z,100096.00
2022-08-25T04:03:35.583Z,100100.00
2022-08-25T04:09:38.187Z,100090.00
2022-08-25T04:15:44.257Z,100090.00
2022-08-25T04:21:46.788Z,100086.00
2022-08-25T04:27:49.063Z,100089.00
2022-08-25T04:33:51.239Z,100095.00
2022-08-25T04:39:53.609Z,100100.00
2022-08-25T04:45:56.303Z,100104.00
2022-08-25T04:51:58.733Z,100098.00
2022-08-25T04:58:01.057Z,100094.00
2022-08-25T05:04:05.955Z,100101.00
2022-08-25T05:10:08.705Z,100098.00
2022-08-25T05:16:11.480Z,100042.00
2022-08-25T05:22:13.846Z,100034.00
2022-08-25T05:28:16.122Z,100033.00
2022-08-25T05:34:19.821Z,100043.00
2022-08-25T05:40:25.331Z,100053.00
2022-08-25T05:46:27.704Z,100041.00
2022-08-25T05:52:34.035Z,100043.00
2022-08-25T05:58:37.785Z,100042.00
2022-08-25T06:04:41.364Z,100046.00
2022-08-25T06:10:43.674Z,100115.00
2022-08-25T06:16:46.164Z,100142.00
2022-08-25T06:22:49.173Z,100130.00
2022-08-25T06:28:51.936Z,100130.00
2022-08-25T06:34:54.478Z,100015.00
2022-08-25T06:40:58.106Z,100030.00
2022-08-25T06:47:00.556Z,100135.00
2022-08-25T06:53:03.818Z,100139.00
2022-08-25T06:59:08.143Z,100143.00
2022-08-25T07:05:17.065Z,100135.00
2022-08-25T07:11:29.637Z,100122.00
2022-08-25T07:17:32.403Z,100030.00
2022-08-25T07:23:34.865Z,100109.00
2022-08-25T07:29:42.765Z,100025.00
2022-08-25T07:35:45.839Z,100093.00
2022-08-25T07:41:48.203Z,100108.00
2022-08-25T07:47:54.843Z,100090.00
2022-08-25T07:53:57.384Z,100100.00
2022-08-25T08:00:00.426Z,100111.00
2022-08-25T08:06:08.216Z,100125.00
2022-08-25T08:12:10.553Z,100107.00
2022-08-25T08:18:13.236Z,100009.00
2022-08-25T08:24:38.370Z,100104.00
2022-08-25T08:30:37.898Z,100016.00
2022-08-25T08:36:40.307Z,100009.00
2022-08-25T08:42:48.547Z,100014.00
2022-08-25T08:49:02.255Z,100007.00
2022-08-25T08:55:11.914Z,100022.00
2022-08-25T09:01:19.609Z,100017.00
2022-08-25T09:07:28.257Z,100012.00
2022-08-25T09:13:58.317Z,100002.00
2022-08-25T09:20:19.357Z,100008.00
2022-08-25T09:27:00.444Z,100003.00
2022-08-25T09:33:05.113Z,99991.00
2022-08-25T09:39:09.854Z,99989.00
2022-08-25T09:45:14.771Z,99989.00
2022-08-25T09:51:42.969Z,99970.00
2022-08-25T09:57:56.428Z,99967.00
2022-08-25T10:04:06.179Z,99976.00
2022-08-25T10:10:23.257Z,99970.00
2022-08-25T10:16:34.049Z,99969.00
2022-08-25T10:22:43.018Z,99968.00
2022-08-25T10:29:07.344Z,99973.00
2022-08-25T10:35:29.961Z,99980.00
2022-08-25T10:41:53.341Z,99978.00
2022-08-25T10:48:13.580Z,99956.00
2022-08-25T10:54:51.205Z,99942.00
2022-08-25T11:01:43.907Z,99915.00
2022-08-25T11:07:50.037Z,99902.00
2022-08-25T11:14:11.361Z,99897.00
2022-08-25T11:20:27.116Z,99948.00
2022-08-25T11:26:37.171Z,99945.00
2022-08-25T11:32:40.828Z,99930.00
2022-08-25T11:38:59.213Z,99938.00
2022-08-25T11:45:20.553Z,99882.00
2022-08-25T11:51:36.390Z,99872.00
2022-08-25T11:57:39.920Z,99884.00
2022-08-25T12:03:42.172Z,99893.00
2022-08-25T12:09:56.115Z,99904.00
2022-08-25T12:16:01.067Z,99892.00
2022-08-25T12:22:04.522Z,99898.00
2022-08-25T12:28:27.191Z,99905.00
2022-08-25T12:35:07.054Z,99903.00
2022-08-25T12:41:11.525Z,99893.00
2022-08-25T12:47:20.023Z,99894.00
2022-08-25T12:53:38.082Z,99896.00
2022-08-25T12:59:48.903Z,99886.00
2022-08-25T13:05:53.854Z,99878.00
2022-08-25T13:12:28.182Z,99873.00
2022-08-25T13:18:36.411Z,99920.00
2022-08-25T13:24:43.448Z,99952.00
2022-08-25T13:30:57.647Z,99947.00
2022-08-25T13:37:26.286Z,99957.00
2022-08-25T13:43:28.781Z,99965.00
2022-08-25T13:49:31.238Z,99961.00
2022-08-25T13:55:51.190Z,99950.00
2022-08-25T14:01:55.934Z,99958.00
2022-08-25T14:08:15.801Z,99947.00
2022-08-25T14:14:23.926Z,99949.00
2022-08-25T14:20:29.398Z,99939.00
2022-08-25T14:26:31.626Z,99940.00
2022-08-25T14:32:34.126Z,99941.00
2022-08-25T14:38:44.017Z,99941.00
2022-08-25T14:44:47.338Z,99942.00
2022-08-25T14:50:50.731Z,99949.00
2022-08-25T14:56:53.418Z,99943.00
2022-08-25T15:02:57.019Z,99943.00
2022-08-25T15:09:11.868Z,99936.00
2022-08-25T15:15:14.728Z,99946.00
2022-08-25T15:21:17.175Z,99929.00
2022-08-25T15:27:21.692Z,99943.00
2022-08-25T15:33:24.154Z,99942.00
2022-08-25T15:39:28.082Z,99948.00
2022-08-25T15:45:30.277Z,99949.00
2022-08-25T15:51:33.133Z,99952.00
2022-08-25T15:57:35.508Z,99947.00
2022-08-25T16:03:41.166Z,99944.00
2022-08-25T16:09:43.406Z,99951.00
2022-08-25T16:15:53.067Z,99946.00
2022-08-25T16:21:57.742Z,99950.00
2022-08-25T16:28:01.178Z,99941.00
2022-08-25T16:34:03.613Z,99937.00
2022-08-25T16:40:08.267Z,99936.00
2022-08-25T16:46:14.211Z,99944.00
2022-08-25T16:52:35.597Z,99953.00
2022-08-25T16:58:38.111Z,99948.00
2022-08-25T17:04:42.487Z,99956.00
2022-08-25T17:10:44.910Z,99954.00
2022-08-25T17:16:50.611Z,99945.00
2022-08-25T17:22:53.158Z,99939.00
2022-08-25T17:28:56.579Z,99952.00
2022-08-25T17:34:59.782Z,99959.00
2022-08-25T17:41:07.187Z,99968.00
2022-08-25T17:47:10.314Z,99965.00
2022-08-25T17:53:13.894Z,99966.00
2022-08-25T17:59:19.953Z,99966.00
2022-08-25T18:05:22.693Z,99969.00
2022-08-25T18:11:25.141Z,99973.00
2022-08-25T18:17:28.211Z,99979.00
2022-08-25T18:23:31.716Z,99970.00
2022-08-25T18:29:34.133Z,99962.00
2022-08-25T18:35:36.355Z,99967.00
2022-08-25T18:41:42.816Z,99968.00
2022-08-25T18:47:48.248Z,99963.00
2022-08-25T18:53:54.480Z,99973.00
2022-08-25T19:00:01.728Z,99960.00
2022-08-25T19:06:04.148Z,99966.00
2022-08-25T19:12:06.799Z,99957.00
2022-08-25T19:18:15.270Z,99964.00
2022-08-25T19:24:20.484Z,99968.00
2022-08-25T19:30:25.475Z,99966.00
2022-08-25T19:36:29.212Z,99974.00
2022-08-25T19:42:36.977Z,99982.00
2022-08-25T19:48:41.112Z,99980.00
2022-08-25T19:54:46.483Z,99983.00
2022-08-25T20:00:51.263Z,99996.00
2022-08-25T20:06:55.589Z,99992.00
2022-08-25T20:12:58.633Z,99993.00
2022-08-25T20:19:01.072Z,99992.00
2022-08-25T20:25:13.143Z,99993.00
2022-08-25T20:31:15.898Z,99988.00
2022-08-25T20:37:18.101Z,99995.00
2022-08-25T20:43:21.819Z,99990.00
2022-08-25T20:49:27.020Z,100008.00
2022-08-25T20:55:29.428Z,100014.00
2022-08-25T21:01:42.472Z,100010.00
2022-08-25T21:07:44.758Z,100004.00
2022-08-25T21:13:47.143Z,100015.00
2022-08-25T21:19:49.475Z,100013.00
2022-08-25T21:25:51.955Z,100011.00
2022-08-25T21:31:54.592Z,100021.00
2022-08-25T21:37:56.772Z,100018.00
2022-08-25T21:43:59.972Z,100007.00
2022-08-25T21:50:02.247Z,99995.00
2022-08-25T21:56:06.407Z,99997.00
2022-08-25T22:02:11.914Z,99995.00
2022-08-25T22:08:14.773Z,99995.00
2022-08-25T22:14:18.106Z,99979.00
2022-08-25T22:20:20.674Z,99975.00
2022-08-25T22:26:23.835Z,99973.00
2022-08-25T22:32:29.798Z,99973.00
2022-08-25T22:38:32.060Z,99971.00
2022-08-25T22:44:34.656Z,99961.00
2022-08-25T22:50:37.562Z,99959.00
2022-08-25T22:56:40.066Z,99958.00
2022-08-25T23:02:43.465Z,99954.00
2022-08-25T23:08:47.041Z,99958.00
2022-08-25T23:14:50.127Z,99946.00
2022-08-25T23:21:10.775Z,99950.00
2022-08-25T23:27:17.965Z,99952.00
2022-08-25T23:33:20.752Z,99950.00
2022-08-25T23:39:23.393Z,99947.00
2022-08-25T23:45:26.522Z,99950.00
2022-08-25T23:51:32.915Z,99951.00
2022-08-25T23:57:35.487Z,99945.00
